sensor_id;sensor_type;location;lat;lon;timestamp;temperature;humidity
8402;DHT22;4238;48.404;9.498;2022-07-24T00:01:05;16.90;99.90
8402;DHT22;4238;48.404;9.498;2022-07-24T00:03:32;16.90;99.90
8402;DHT22;4238;48.404;9.498;2022-07-24T00:05:59;16.90;99.90
8402;DHT22;4238;48.404;9.498;2022-07-24T00:08:25;16.90;99.90
8402;DHT22;4238;48.404;9.498;2022-07-24T00:10:52;17.00;99.90
8402;DHT22;4238;48.404;9.498;2022-07-24T00:13:19;17.00;99.90
8402;DHT22;4238;48.404;9.498;2022-07-24T00:15:48;17.00;99.90
8402;DHT22;4238;48.404;9.498;2022-07-24T00:18:15;17.00;99.90
8402;DHT22;4238;48.404;9.498;2022-07-24T00:20:41;17.00;99.90
8402;DHT22;4238;48.404;9.498;2022-07-24T00:23:08;17.00;99.90
8402;DHT22;4238;48.404;9.498;2022-07-24T00:25:35;17.00;99.90
8402;DHT22;4238;48.404;9.498;2022-07-24T00:28:02;17.10;99.90
8402;DHT22;4238;48.404;9.498;2022-07-24T00:30:29;17.10;99.90
8402;DHT22;4238;48.404;9.498;2022-07-24T00:32:58;17.00;99.90
8402;DHT22;4238;48.404;9.498;2022-07-24T00:35:25;17.10;99.90
8402;DHT22;4238;48.404;9.498;2022-07-24T00:37:52;17.10;99.90
8402;DHT22;4238;48.404;9.498;2022-07-24T00:40:19;17.00;99.90
8402;DHT22;4238;48.404;9.498;2022-07-24T00:42:46;17.00;99.90
8402;DHT22;4238;48.404;9.498;2022-07-24T00:45:13;17.00;99.90
8402;DHT22;4238;48.404;9.498;2022-07-24T00:47:40;17.00;99.90
8402;DHT22;4238;48.404;9.498;2022-07-24T00:50:09;17.00;99.90
8402;DHT22;4238;48.404;9.498;2022-07-24T00:52:36;17.00;99.90
8402;DHT22;4238;48.404;9.498;2022-07-24T00:55:04;17.00;99.90
8402;DHT22;4238;48.404;9.498;2022-07-24T00:57:31;17.00;99.90
8402;DHT22;4238;48.404;9.498;2022-07-24T00:59:58;17.10;99.90
8402;DHT22;4238;48.404;9.498;2022-07-24T01:02:25;17.20;99.90
8402;DHT22;4238;48.404;9.498;2022-07-24T01:04:52;17.20;99.90
8402;DHT22;4238;48.404;9.498;2022-07-24T01:07:21;17.30;99.90
8402;DHT22;4238;48.404;9.498;2022-07-24T01:09:48;17.40;99.90
8402;DHT22;4238;48.404;9.498;2022-07-24T01:12:15;17.50;99.90
8402;DHT22;4238;48.404;9.498;2022-07-24T01:14:43;17.30;99.90
8402;DHT22;4238;48.404;9.498;2022-07-24T01:17:11;17.20;99.90
8402;DHT22;4238;48.404;9.498;2022-07-24T01:19:38;17.20;99.90
8402;DHT22;4238;48.404;9.498;2022-07-24T01:22:06;17.10;99.90
8402;DHT22;4238;48.404;9.498;2022-07-24T01:24:33;17.00;99.90
8402;DHT22;4238;48.404;9.498;2022-07-24T01:27:00;17.00;99.90
8402;DHT22;4238;48.404;9.498;2022-07-24T01:29:27;17.00;99.90
8402;DHT22;4238;48.404;9.498;2022-07-24T01:31:54;16.90;99.90
8402;DHT22;4238;48.404;9.498;2022-07-24T01:34:21;16.90;99.90
8402;DHT22;4238;48.404;9.498;2022-07-24T01:36:48;16.90;99.90
8402;DHT22;4238;48.404;9.498;2022-07-24T01:39:17;16.80;99.90
8402;DHT22;4238;48.404;9.498;2022-07-24T01:41:44;16.80;99.90
8402;DHT22;4238;48.404;9.498;2022-07-24T01:44:11;16.70;99.90
8402;DHT22;4238;48.404;9.498;2022-07-24T01:46:38;16.60;99.90
8402;DHT22;4238;48.404;9.498;2022-07-24T01:49:05;16.60;99.90
8402;DHT22;4238;48.404;9.498;2022-07-24T01:51:32;16.50;99.90
8402;DHT22;4238;48.404;9.498;2022-07-24T01:53:58;16.60;99.90
8402;DHT22;4238;48.404;9.498;2022-07-24T01:56:29;16.60;99.90
8402;DHT22;4238;48.404;9.498;2022-07-24T01:58:56;16.50;99.90
8402;DHT22;4238;48.404;9.498;2022-07-24T02:01:23;16.50;99.90
8402;DHT22;4238;48.404;9.498;2022-07-24T02:03:50;16.50;99.90
8402;DHT22;4238;48.404;9.498;2022-07-24T02:06:17;16.40;99.90
8402;DHT22;4238;48.404;9.498;2022-07-24T02:08:45;16.50;99.90
8402;DHT22;4238;48.404;9.498;2022-07-24T02:11:12;16.60;99.90
8402;DHT22;4238;48.404;9.498;2022-07-24T02:13:40;16.50;99.90
8402;DHT22;4238;48.404;9.498;2022-07-24T02:16:07;16.50;99.90
8402;DHT22;4238;48.404;9.498;2022-07-24T02:18:34;16.50;99.90
8402;DHT22;4238;48.404;9.498;2022-07-24T02:21:01;16.40;99.90
8402;DHT22;4238;48.404;9.498;2022-07-24T02:23:28;16.30;99.90
8402;DHT22;4238;48.404;9.498;2022-07-24T02:25:55;16.30;99.90
8402;DHT22;4238;48.404;9.498;2022-07-24T02:28:22;16.20;99.90
8402;DHT22;4238;48.404;9.498;2022-07-24T02:30:50;16.10;99.90
8402;DHT22;4238;48.404;9.498;2022-07-24T02:33:17;16.00;99.90
8402;DHT22;4238;48.404;9.498;2022-07-24T02:35:44;16.10;99.90
8402;DHT22;4238;48.404;9.498;2022-07-24T02:38:11;16.20;99.90
8402;DHT22;4238;48.404;9.498;2022-07-24T02:40:38;16.30;99.90
8402;DHT22;4238;48.404;9.498;2022-07-24T02:43:05;16.50;99.90
8402;DHT22;4238;48.404;9.498;2022-07-24T02:45:32;16.50;99.90
8402;DHT22;4238;48.404;9.498;2022-07-24T02:48:00;16.50;99.90
8402;DHT22;4238;48.404;9.498;2022-07-24T02:50:33;16.30;99.90
8402;DHT22;4238;48.404;9.498;2022-07-24T02:53:01;16.30;99.90
8402;DHT22;4238;48.404;9.498;2022-07-24T02:55:28;16.20;99.90
8402;DHT22;4238;48.404;9.498;2022-07-24T02:57:55;16.20;99.90
8402;DHT22;4238;48.404;9.498;2022-07-24T03:00:23;16.20;99.90
8402;DHT22;4238;48.404;9.498;2022-07-24T03:02:50;16.10;99.90
8402;DHT22;4238;48.404;9.498;2022-07-24T03:05:18;16.00;99.90
8402;DHT22;4238;48.404;9.498;2022-07-24T03:07:45;15.90;99.90
8402;DHT22;4238;48.404;9.498;2022-07-24T03:10:13;15.90;99.90
8402;DHT22;4238;48.404;9.498;2022-07-24T03:12:42;15.80;99.90
8402;DHT22;4238;48.404;9.498;2022-07-24T03:15:11;15.80;99.90
8402;DHT22;4238;48.404;9.498;2022-07-24T03:17:38;15.70;99.90
8402;DHT22;4238;48.404;9.498;2022-07-24T03:20:06;15.60;99.90
8402;DHT22;4238;48.404;9.498;2022-07-24T03:22:34;15.70;99.90
8402;DHT22;4238;48.404;9.498;2022-07-24T03:25:01;15.70;99.90
8402;DHT22;4238;48.404;9.498;2022-07-24T03:27:28;15.70;99.90
8402;DHT22;4238;48.404;9.498;2022-07-24T03:29:55;15.70;99.90
8402;DHT22;4238;48.404;9.498;2022-07-24T03:32:22;15.60;99.90
8402;DHT22;4238;48.404;9.498;2022-07-24T03:34:49;15.60;99.90
8402;DHT22;4238;48.404;9.498;2022-07-24T03:37:16;15.50;99.90
8402;DHT22;4238;48.404;9.498;2022-07-24T03:39:44;15.60;99.90
8402;DHT22;4238;48.404;9.498;2022-07-24T03:42:11;15.70;99.90
8402;DHT22;4238;48.404;9.498;2022-07-24T03:44:38;15.80;99.90
8402;DHT22;4238;48.404;9.498;2022-07-24T03:47:05;15.70;99.90
8402;DHT22;4238;48.404;9.498;2022-07-24T03:49:32;15.60;99.90
8402;DHT22;4238;48.404;9.498;2022-07-24T03:52:00;15.70;99.90
8402;DHT22;4238;48.404;9.498;2022-07-24T03:54:27;15.70;99.90
8402;DHT22;4238;48.404;9.498;2022-07-24T03:56:55;15.70;99.90
8402;DHT22;4238;48.404;9.498;2022-07-24T03:59:22;15.70;99.90
8402;DHT22;4238;48.404;9.498;2022-07-24T04:01:49;15.70;99.90
8402;DHT22;4238;48.404;9.498;2022-07-24T04:04:16;15.70;99.90
8402;DHT22;4238;48.404;9.498;2022-07-24T04:06:43;15.70;99.90
8402;DHT22;4238;48.404;9.498;2022-07-24T04:09:10;15.60;99.90
8402;DHT22;4238;48.404;9.498;2022-07-24T04:11:37;15.50;99.90
8402;DHT22;4238;48.404;9.498;2022-07-24T04:14:05;15.40;99.90
8402;DHT22;4238;48.404;9.498;2022-07-24T04:16:32;15.40;99.90
8402;DHT22;4238;48.404;9.498;2022-07-24T04:18:59;15.40;99.90
8402;DHT22;4238;48.404;9.498;2022-07-24T04:21:26;15.50;99.90
8402;DHT22;4238;48.404;9.498;2022-07-24T04:23:53;15.50;99.90
8402;DHT22;4238;48.404;9.498;2022-07-24T04:26:20;15.50;99.90
8402;DHT22;4238;48.404;9.498;2022-07-24T04:28:47;15.60;99.90
8402;DHT22;4238;48.404;9.498;2022-07-24T04:31:16;15.70;99.90
8402;DHT22;4238;48.404;9.498;2022-07-24T04:33:43;15.70;99.90
8402;DHT22;4238;48.404;9.498;2022-07-24T04:36:10;15.80;99.90
8402;DHT22;4238;48.404;9.498;2022-07-24T04:38:37;15.90;99.90
8402;DHT22;4238;48.404;9.498;2022-07-24T04:41:04;16.00;99.90
8402;DHT22;4238;48.404;9.498;2022-07-24T04:43:31;16.00;99.90
8402;DHT22;4238;48.404;9.498;2022-07-24T04:45:58;16.00;99.90
8402;DHT22;4238;48.404;9.498;2022-07-24T04:48:27;16.10;99.90
8402;DHT22;4238;48.404;9.498;2022-07-24T04:50:54;16.20;99.90
8402;DHT22;4238;48.404;9.498;2022-07-24T04:53:21;16.20;99.90
8402;DHT22;4238;48.404;9.498;2022-07-24T04:55:48;16.30;99.90
8402;DHT22;4238;48.404;9.498;2022-07-24T04:58:15;16.40;99.90
8402;DHT22;4238;48.404;9.498;2022-07-24T05:00:42;16.50;99.90
8402;DHT22;4238;48.404;9.498;2022-07-24T05:03:09;16.60;99.90
8402;DHT22;4238;48.404;9.498;2022-07-24T05:05:37;16.80;99.90
8402;DHT22;4238;48.404;9.498;2022-07-24T05:08:04;16.90;99.90
8402;DHT22;4238;48.404;9.498;2022-07-24T05:10:31;17.00;99.90
8402;DHT22;4238;48.404;9.498;2022-07-24T05:12:58;17.20;99.90
8402;DHT22;4238;48.404;9.498;2022-07-24T05:15:25;17.30;99.90
8402;DHT22;4238;48.404;9.498;2022-07-24T05:17:52;17.50;99.90
8402;DHT22;4238;48.404;9.498;2022-07-24T05:20:19;17.60;99.90
8402;DHT22;4238;48.404;9.498;2022-07-24T05:22:47;17.80;99.90
8402;DHT22;4238;48.404;9.498;2022-07-24T05:25:14;17.90;99.90
8402;DHT22;4238;48.404;9.498;2022-07-24T05:27:41;18.00;99.90
8402;DHT22;4238;48.404;9.498;2022-07-24T05:30:09;18.10;98.70
8402;DHT22;4238;48.404;9.498;2022-07-24T05:32:37;18.30;97.90
8402;DHT22;4238;48.404;9.498;2022-07-24T05:35:05;18.40;95.50
8402;DHT22;4238;48.404;9.498;2022-07-24T05:37:32;18.60;90.80
8402;DHT22;4238;48.404;9.498;2022-07-24T05:40:00;18.80;68.50
8402;DHT22;4238;48.404;9.498;2022-07-24T05:42:27;19.10;59.50
8402;DHT22;4238;48.404;9.498;2022-07-24T05:44:54;19.20;47.10
8402;DHT22;4238;48.404;9.498;2022-07-24T05:47:21;19.40;58.80
8402;DHT22;4238;48.404;9.498;2022-07-24T05:49:48;19.50;45.10
8402;DHT22;4238;48.404;9.498;2022-07-24T05:52:14;19.60;44.70
8402;DHT22;4238;48.404;9.498;2022-07-24T05:54:41;19.80;40.70
8402;DHT22;4238;48.404;9.498;2022-07-24T05:57:10;20.00;33.30
8402;DHT22;4238;48.404;9.498;2022-07-24T05:59:37;20.00;21.50
8402;DHT22;4238;48.404;9.498;2022-07-24T06:02:04;20.20;25.00
8402;DHT22;4238;48.404;9.498;2022-07-24T06:04:31;20.10;17.70
8402;DHT22;4238;48.404;9.498;2022-07-24T06:06:58;20.10;17.70
8402;DHT22;4238;48.404;9.498;2022-07-24T06:09:25;20.20;36.50
8402;DHT22;4238;48.404;9.498;2022-07-24T06:11:52;20.40;13.90
8402;DHT22;4238;48.404;9.498;2022-07-24T06:14:20;20.60;7.00
8402;DHT22;4238;48.404;9.498;2022-07-24T06:16:47;20.40;1.00
8402;DHT22;4238;48.404;9.498;2022-07-24T06:19:14;20.30;7.70
8402;DHT22;4238;48.404;9.498;2022-07-24T06:21:43;20.20;15.70
8402;DHT22;4238;48.404;9.498;2022-07-24T06:24:10;20.40;21.50
8402;DHT22;4238;48.404;9.498;2022-07-24T06:26:37;20.70;3.50
8402;DHT22;4238;48.404;9.498;2022-07-24T06:29:04;20.90;1.00
8402;DHT22;4238;48.404;9.498;2022-07-24T06:31:32;21.20;1.00
8402;DHT22;4238;48.404;9.498;2022-07-24T06:33:59;21.50;1.00
8402;DHT22;4238;48.404;9.498;2022-07-24T06:36:26;21.80;1.00
8402;DHT22;4238;48.404;9.498;2022-07-24T06:38:53;22.10;1.00
8402;DHT22;4238;48.404;9.498;2022-07-24T06:41:20;22.20;1.00
8402;DHT22;4238;48.404;9.498;2022-07-24T06:43:47;22.40;1.00
8402;DHT22;4238;48.404;9.498;2022-07-24T06:46:14;22.70;1.00
8402;DHT22;4238;48.404;9.498;2022-07-24T06:48:42;23.00;1.00
8402;DHT22;4238;48.404;9.498;2022-07-24T06:51:09;23.20;70.30
8402;DHT22;4238;48.404;9.498;2022-07-24T06:53:36;23.30;99.90
8402;DHT22;4238;48.404;9.498;2022-07-24T06:56:07;23.30;99.90
8402;DHT22;4238;48.404;9.498;2022-07-24T06:58:33;23.40;1.00
8402;DHT22;4238;48.404;9.498;2022-07-24T07:01:00;23.70;99.90
8402;DHT22;4238;48.404;9.498;2022-07-24T07:03:27;23.90;1.00
8402;DHT22;4238;48.404;9.498;2022-07-24T07:05:56;24.10;1.00
8402;DHT22;4238;48.404;9.498;2022-07-24T07:08:23;24.10;1.00
8402;DHT22;4238;48.404;9.498;2022-07-24T07:10:49;24.20;99.90
8402;DHT22;4238;48.404;9.498;2022-07-24T07:13:16;24.30;1.00
8402;DHT22;4238;48.404;9.498;2022-07-24T07:15:43;24.70;99.90
8402;DHT22;4238;48.404;9.498;2022-07-24T07:18:10;24.90;1.00
8402;DHT22;4238;48.404;9.498;2022-07-24T07:20:37;24.90;99.90
8402;DHT22;4238;48.404;9.498;2022-07-24T07:23:06;25.10;99.90
8402;DHT22;4238;48.404;9.498;2022-07-24T07:25:33;25.30;99.90
8402;DHT22;4238;48.404;9.498;2022-07-24T07:27:59;25.50;1.00
8402;DHT22;4238;48.404;9.498;2022-07-24T07:30:26;25.30;1.00
8402;DHT22;4238;48.404;9.498;2022-07-24T07:32:53;25.50;99.90
8402;DHT22;4238;48.404;9.498;2022-07-24T07:35:20;25.90;1.00
8402;DHT22;4238;48.404;9.498;2022-07-24T07:37:49;25.90;1.00
8402;DHT22;4238;48.404;9.498;2022-07-24T07:40:18;25.90;1.00
8402;DHT22;4238;48.404;9.498;2022-07-24T07:42:45;26.20;1.00
8402;DHT22;4238;48.404;9.498;2022-07-24T07:45:12;26.30;99.90
8402;DHT22;4238;48.404;9.498;2022-07-24T07:47:39;26.50;99.90
8402;DHT22;4238;48.404;9.498;2022-07-24T07:50:07;26.40;99.90
8402;DHT22;4238;48.404;9.498;2022-07-24T07:52:34;26.30;99.90
8402;DHT22;4238;48.404;9.498;2022-07-24T07:55:02;26.50;50.50
8402;DHT22;4238;48.404;9.498;2022-07-24T07:57:31;26.60;1.00
8402;DHT22;4238;48.404;9.498;2022-07-24T07:59:57;26.40;1.00
8402;DHT22;4238;48.404;9.498;2022-07-24T08:02:24;26.50;1.00
8402;DHT22;4238;48.404;9.498;2022-07-24T08:04:51;26.60;99.90
8402;DHT22;4238;48.404;9.498;2022-07-24T08:07:18;26.70;1.00
8402;DHT22;4238;48.404;9.498;2022-07-24T08:09:45;27.10;99.90
8402;DHT22;4238;48.404;9.498;2022-07-24T08:12:12;27.00;1.00
8402;DHT22;4238;48.404;9.498;2022-07-24T08:14:40;27.30;1.00
8402;DHT22;4238;48.404;9.498;2022-07-24T08:17:07;27.30;99.90
8402;DHT22;4238;48.404;9.498;2022-07-24T08:19:34;27.00;99.90
8402;DHT22;4238;48.404;9.498;2022-07-24T08:22:01;27.30;99.90
8402;DHT22;4238;48.404;9.498;2022-07-24T08:24:29;27.30;99.90
8402;DHT22;4238;48.404;9.498;2022-07-24T08:26:57;27.40;99.90
8402;DHT22;4238;48.404;9.498;2022-07-24T08:29:25;27.30;99.90
8402;DHT22;4238;48.404;9.498;2022-07-24T08:31:53;27.40;99.90
8402;DHT22;4238;48.404;9.498;2022-07-24T08:34:20;27.40;99.90
8402;DHT22;4238;48.404;9.498;2022-07-24T08:36:47;27.40;99.90
8402;DHT22;4238;48.404;9.498;2022-07-24T08:39:14;27.60;99.90
8402;DHT22;4238;48.404;9.498;2022-07-24T08:41:42;27.90;99.90
8402;DHT22;4238;48.404;9.498;2022-07-24T08:44:09;28.10;99.90
8402;DHT22;4238;48.404;9.498;2022-07-24T08:46:38;28.20;99.90
8402;DHT22;4238;48.404;9.498;2022-07-24T08:49:10;28.10;16.00
8402;DHT22;4238;48.404;9.498;2022-07-24T08:51:39;28.40;1.00
8402;DHT22;4238;48.404;9.498;2022-07-24T08:54:06;28.40;1.00
8402;DHT22;4238;48.404;9.498;2022-07-24T08:56:34;28.60;1.00
8402;DHT22;4238;48.404;9.498;2022-07-24T08:59:03;28.80;1.00
8402;DHT22;4238;48.404;9.498;2022-07-24T09:01:30;28.70;1.00
8402;DHT22;4238;48.404;9.498;2022-07-24T09:03:56;29.10;1.00
8402;DHT22;4238;48.404;9.498;2022-07-24T09:06:25;29.00;1.00
8402;DHT22;4238;48.404;9.498;2022-07-24T09:08:59;29.40;1.00
8402;DHT22;4238;48.404;9.498;2022-07-24T09:11:28;29.30;1.00
8402;DHT22;4238;48.404;9.498;2022-07-24T09:13:59;29.30;1.00
8402;DHT22;4238;48.404;9.498;2022-07-24T09:16:45;28.70;1.00
8402;DHT22;4238;48.404;9.498;2022-07-24T09:19:12;28.30;1.00
8402;DHT22;4238;48.404;9.498;2022-07-24T09:21:43;27.60;1.00
8402;DHT22;4238;48.404;9.498;2022-07-24T09:24:16;26.90;1.00
8402;DHT22;4238;48.404;9.498;2022-07-24T09:26:45;26.50;1.00
8402;DHT22;4238;48.404;9.498;2022-07-24T09:29:14;26.80;12.10
8402;DHT22;4238;48.404;9.498;2022-07-24T09:31:52;27.60;17.60
8402;DHT22;4238;48.404;9.498;2022-07-24T09:34:19;28.40;1.00
8402;DHT22;4238;48.404;9.498;2022-07-24T09:36:59;28.10;1.00
8402;DHT22;4238;48.404;9.498;2022-07-24T09:39:28;27.60;1.00
8402;DHT22;4238;48.404;9.498;2022-07-24T09:41:56;27.30;1.00
8402;DHT22;4238;48.404;9.498;2022-07-24T09:44:24;26.60;1.00
8402;DHT22;4238;48.404;9.498;2022-07-24T09:46:58;26.20;1.00
8402;DHT22;4238;48.404;9.498;2022-07-24T09:49:26;26.20;99.90
8402;DHT22;4238;48.404;9.498;2022-07-24T09:52:10;26.00;99.90
8402;DHT22;4238;48.404;9.498;2022-07-24T09:54:39;26.00;99.90
8402;DHT22;4238;48.404;9.498;2022-07-24T09:57:21;25.80;1.00
8402;DHT22;4238;48.404;9.498;2022-07-24T09:59:52;25.80;99.90
8402;DHT22;4238;48.404;9.498;2022-07-24T10:02:24;25.60;99.90
8402;DHT22;4238;48.404;9.498;2022-07-24T10:04:52;25.80;99.90
8402;DHT22;4238;48.404;9.498;2022-07-24T10:07:22;26.40;99.90
8402;DHT22;4238;48.404;9.498;2022-07-24T10:09:51;26.90;90.10
8402;DHT22;4238;48.404;9.498;2022-07-24T10:12:19;27.60;15.90
8402;DHT22;4238;48.404;9.498;2022-07-24T10:14:49;27.90;1.00
8402;DHT22;4238;48.404;9.498;2022-07-24T10:17:17;28.40;1.00
8402;DHT22;4238;48.404;9.498;2022-07-24T10:19:46;28.60;1.00
8402;DHT22;4238;48.404;9.498;2022-07-24T10:22:15;29.00;1.00
8402;DHT22;4238;48.404;9.498;2022-07-24T10:35:13;29.40;1.00
8402;DHT22;4238;48.404;9.498;2022-07-24T10:37:53;29.20;1.00
8402;DHT22;4238;48.404;9.498;2022-07-24T10:40:25;29.10;1.00
8402;DHT22;4238;48.404;9.498;2022-07-24T10:43:11;28.80;1.00
8402;DHT22;4238;48.404;9.498;2022-07-24T10:45:39;28.70;1.00
8402;DHT22;4238;48.404;9.498;2022-07-24T10:48:29;28.90;1.00
8402;DHT22;4238;48.404;9.498;2022-07-24T10:51:07;29.70;1.00
8402;DHT22;4238;48.404;9.498;2022-07-24T10:53:53;30.50;1.00
8402;DHT22;4238;48.404;9.498;2022-07-24T10:56:27;30.20;1.00
8402;DHT22;4238;48.404;9.498;2022-07-24T10:58:56;29.90;99.90
8402;DHT22;4238;48.404;9.498;2022-07-24T11:01:29;29.80;99.90
8402;DHT22;4238;48.404;9.498;2022-07-24T11:03:59;30.00;99.90
8402;DHT22;4238;48.404;9.498;2022-07-24T11:06:42;30.10;99.90
8402;DHT22;4238;48.404;9.498;2022-07-24T11:09:10;30.10;99.90
8402;DHT22;4238;48.404;9.498;2022-07-24T11:11:42;30.60;99.90
8402;DHT22;4238;48.404;9.498;2022-07-24T11:14:10;31.00;99.90
8402;DHT22;4238;48.404;9.498;2022-07-24T11:16:37;31.50;99.90
8402;DHT22;4238;48.404;9.498;2022-07-24T11:34:54;31.00;99.90
8402;DHT22;4238;48.404;9.498;2022-07-24T11:37:21;30.70;99.90
8402;DHT22;4238;48.404;9.498;2022-07-24T11:39:50;30.60;99.90
8402;DHT22;4238;48.404;9.498;2022-07-24T11:42:17;30.60;99.90
8402;DHT22;4238;48.404;9.498;2022-07-24T11:44:46;30.70;99.90
8402;DHT22;4238;48.404;9.498;2022-07-24T11:47:14;30.70;99.90
8402;DHT22;4238;48.404;9.498;2022-07-24T11:49:43;30.90;99.90
8402;DHT22;4238;48.404;9.498;2022-07-24T11:52:17;31.30;99.90
8402;DHT22;4238;48.404;9.498;2022-07-24T11:54:45;31.50;99.90
8402;DHT22;4238;48.404;9.498;2022-07-24T11:57:18;31.50;99.90
8402;DHT22;4238;48.404;9.498;2022-07-24T11:59:47;31.40;99.90
8402;DHT22;4238;48.404;9.498;2022-07-24T12:02:15;31.30;99.90
8402;DHT22;4238;48.404;9.498;2022-07-24T12:04:43;31.40;99.90
8402;DHT22;4238;48.404;9.498;2022-07-24T12:07:12;31.40;99.90
8402;DHT22;4238;48.404;9.498;2022-07-24T12:09:51;31.50;99.90
8402;DHT22;4238;48.404;9.498;2022-07-24T12:12:20;31.40;99.90
8402;DHT22;4238;48.404;9.498;2022-07-24T12:14:48;31.60;99.90
8402;DHT22;4238;48.404;9.498;2022-07-24T12:17:15;31.00;99.90
8402;DHT22;4238;48.404;9.498;2022-07-24T12:30:22;28.60;99.90
8402;DHT22;4238;48.404;9.498;2022-07-24T12:32:58;28.40;99.90
8402;DHT22;4238;48.404;9.498;2022-07-24T12:35:27;28.50;99.90
8402;DHT22;4238;48.404;9.498;2022-07-24T12:37:55;28.40;99.90
8402;DHT22;4238;48.404;9.498;2022-07-24T12:40:25;28.70;99.90
8402;DHT22;4238;48.404;9.498;2022-07-24T12:43:06;29.30;99.90
8402;DHT22;4238;48.404;9.498;2022-07-24T12:45:35;30.00;99.90
8402;DHT22;4238;48.404;9.498;2022-07-24T12:48:26;30.40;99.90
8402;DHT22;4238;48.404;9.498;2022-07-24T12:51:05;30.50;99.90
8402;DHT22;4238;48.404;9.498;2022-07-24T12:53:35;30.00;99.90
8402;DHT22;4238;48.404;9.498;2022-07-24T12:56:11;29.40;99.90
8402;DHT22;4238;48.404;9.498;2022-07-24T12:58:58;29.20;99.90
8402;DHT22;4238;48.404;9.498;2022-07-24T13:01:42;29.10;99.90
8402;DHT22;4238;48.404;9.498;2022-07-24T13:04:10;28.40;99.90
8402;DHT22;4238;48.404;9.498;2022-07-24T13:06:40;28.20;99.90
8402;DHT22;4238;48.404;9.498;2022-07-24T13:09:09;28.10;99.90
8402;DHT22;4238;48.404;9.498;2022-07-24T13:11:37;28.00;99.90
8402;DHT22;4238;48.404;9.498;2022-07-24T13:14:05;27.90;99.90
8402;DHT22;4238;48.404;9.498;2022-07-24T13:16:35;27.80;99.90
8402;DHT22;4238;48.404;9.498;2022-07-24T13:29:24;28.20;99.90
8402;DHT22;4238;48.404;9.498;2022-07-24T13:31:53;28.10;99.90
8402;DHT22;4238;48.404;9.498;2022-07-24T13:34:20;28.20;99.90
8402;DHT22;4238;48.404;9.498;2022-07-24T13:36:47;28.10;99.90
8402;DHT22;4238;48.404;9.498;2022-07-24T13:39:14;28.10;99.90
8402;DHT22;4238;48.404;9.498;2022-07-24T13:41:42;27.90;99.90
8402;DHT22;4238;48.404;9.498;2022-07-24T13:44:09;27.80;99.90
8402;DHT22;4238;48.404;9.498;2022-07-24T13:46:36;27.70;99.90
8402;DHT22;4238;48.404;9.498;2022-07-24T13:49:05;27.70;99.90
8402;DHT22;4238;48.404;9.498;2022-07-24T13:51:33;27.60;99.90
8402;DHT22;4238;48.404;9.498;2022-07-24T13:54:01;27.50;99.90
8402;DHT22;4238;48.404;9.498;2022-07-24T13:56:29;27.60;99.90
8402;DHT22;4238;48.404;9.498;2022-07-24T13:58:57;27.60;99.90
8402;DHT22;4238;48.404;9.498;2022-07-24T14:01:24;27.40;99.90
8402;DHT22;4238;48.404;9.498;2022-07-24T14:03:51;27.50;99.90
8402;DHT22;4238;48.404;9.498;2022-07-24T14:06:20;27.40;99.90
8402;DHT22;4238;48.404;9.498;2022-07-24T14:08:47;27.20;99.90
8402;DHT22;4238;48.404;9.498;2022-07-24T14:11:14;27.50;99.90
8402;DHT22;4238;48.404;9.498;2022-07-24T14:13:41;27.60;99.90
8402;DHT22;4238;48.404;9.498;2022-07-24T14:16:07;27.40;99.90
8402;DHT22;4238;48.404;9.498;2022-07-24T14:18:34;27.50;99.90
8402;DHT22;4238;48.404;9.498;2022-07-24T14:21:01;27.90;99.90
8402;DHT22;4238;48.404;9.498;2022-07-24T14:23:30;28.50;99.90
8402;DHT22;4238;48.404;9.498;2022-07-24T14:25:57;28.80;99.90
8402;DHT22;4238;48.404;9.498;2022-07-24T14:28:24;28.60;99.90
8402;DHT22;4238;48.404;9.498;2022-07-24T14:30:51;28.20;99.90
8402;DHT22;4238;48.404;9.498;2022-07-24T14:33:17;28.00;99.90
8402;DHT22;4238;48.404;9.498;2022-07-24T14:35:44;27.90;99.90
8402;DHT22;4238;48.404;9.498;2022-07-24T14:38:11;27.80;99.90
8402;DHT22;4238;48.404;9.498;2022-07-24T14:40:40;27.70;99.90
8402;DHT22;4238;48.404;9.498;2022-07-24T14:43:07;28.00;99.90
8402;DHT22;4238;48.404;9.498;2022-07-24T14:45:34;28.40;99.90
8402;DHT22;4238;48.404;9.498;2022-07-24T14:48:01;28.70;99.90
8402;DHT22;4238;48.404;9.498;2022-07-24T14:50:28;28.70;99.90
8402;DHT22;4238;48.404;9.498;2022-07-24T14:52:55;28.80;99.90
8402;DHT22;4238;48.404;9.498;2022-07-24T14:55:22;29.00;99.90
8402;DHT22;4238;48.404;9.498;2022-07-24T14:57:50;29.20;99.90
8402;DHT22;4238;48.404;9.498;2022-07-24T15:00:17;29.40;99.90
8402;DHT22;4238;48.404;9.498;2022-07-24T15:02:44;29.50;99.90
8402;DHT22;4238;48.404;9.498;2022-07-24T15:05:11;29.50;99.90
8402;DHT22;4238;48.404;9.498;2022-07-24T15:07:38;29.70;99.90
8402;DHT22;4238;48.404;9.498;2022-07-24T15:10:05;29.90;99.90
8402;DHT22;4238;48.404;9.498;2022-07-24T15:12:32;29.90;99.90
8402;DHT22;4238;48.404;9.498;2022-07-24T15:15:01;30.00;99.90
8402;DHT22;4238;48.404;9.498;2022-07-24T15:17:28;30.00;99.90
8402;DHT22;4238;48.404;9.498;2022-07-24T15:19:55;30.10;99.90
8402;DHT22;4238;48.404;9.498;2022-07-24T15:22:22;30.00;99.90
8402;DHT22;4238;48.404;9.498;2022-07-24T15:24:49;29.90;99.90
8402;DHT22;4238;48.404;9.498;2022-07-24T15:27:16;30.00;99.90
8402;DHT22;4238;48.404;9.498;2022-07-24T15:29:42;30.00;99.90
8402;DHT22;4238;48.404;9.498;2022-07-24T15:32:11;29.80;99.90
8402;DHT22;4238;48.404;9.498;2022-07-24T15:34:38;29.80;99.90
8402;DHT22;4238;48.404;9.498;2022-07-24T15:37:05;29.90;99.90
8402;DHT22;4238;48.404;9.498;2022-07-24T15:39:32;29.90;99.90
8402;DHT22;4238;48.404;9.498;2022-07-24T15:41:59;29.90;99.90
8402;DHT22;4238;48.404;9.498;2022-07-24T15:44:26;29.90;99.90
8402;DHT22;4238;48.404;9.498;2022-07-24T15:46:53;29.80;99.90
8402;DHT22;4238;48.404;9.498;2022-07-24T15:49:21;29.80;99.90
8402;DHT22;4238;48.404;9.498;2022-07-24T15:51:48;29.80;99.90
8402;DHT22;4238;48.404;9.498;2022-07-24T15:54:15;29.90;99.90
8402;DHT22;4238;48.404;9.498;2022-07-24T15:56:42;29.70;99.90
8402;DHT22;4238;48.404;9.498;2022-07-24T15:59:09;29.50;99.90
8402;DHT22;4238;48.404;9.498;2022-07-24T16:01:36;29.20;99.90
8402;DHT22;4238;48.404;9.498;2022-07-24T16:04:03;29.00;99.90
8402;DHT22;4238;48.404;9.498;2022-07-24T16:06:32;28.80;99.90
8402;DHT22;4238;48.404;9.498;2022-07-24T16:08:59;28.90;99.90
8402;DHT22;4238;48.404;9.498;2022-07-24T16:11:26;28.90;99.90
8402;DHT22;4238;48.404;9.498;2022-07-24T16:13:53;28.90;99.90
8402;DHT22;4238;48.404;9.498;2022-07-24T16:16:20;29.10;99.90
8402;DHT22;4238;48.404;9.498;2022-07-24T16:18:47;29.00;99.90
8402;DHT22;4238;48.404;9.498;2022-07-24T16:21:14;28.90;99.90
8402;DHT22;4238;48.404;9.498;2022-07-24T16:23:43;28.80;99.90
8402;DHT22;4238;48.404;9.498;2022-07-24T16:26:10;28.70;99.90
8402;DHT22;4238;48.404;9.498;2022-07-24T16:28:38;28.80;99.90
8402;DHT22;4238;48.404;9.498;2022-07-24T16:31:05;28.60;99.90
8402;DHT22;4238;48.404;9.498;2022-07-24T16:33:33;28.70;99.90
8402;DHT22;4238;48.404;9.498;2022-07-24T16:36:00;28.80;99.90
8402;DHT22;4238;48.404;9.498;2022-07-24T16:38:27;28.80;99.90
8402;DHT22;4238;48.404;9.498;2022-07-24T16:40:55;28.70;99.90
8402;DHT22;4238;48.404;9.498;2022-07-24T16:43:22;28.80;99.90
8402;DHT22;4238;48.404;9.498;2022-07-24T16:45:49;28.70;99.90
8402;DHT22;4238;48.404;9.498;2022-07-24T16:48:16;28.80;99.90
8402;DHT22;4238;48.404;9.498;2022-07-24T16:50:43;28.70;99.90
8402;DHT22;4238;48.404;9.498;2022-07-24T16:53:10;28.60;99.90
8402;DHT22;4238;48.404;9.498;2022-07-24T16:55:37;28.50;99.90
8402;DHT22;4238;48.404;9.498;2022-07-24T16:58:05;28.40;99.90